sensor_id;sensor_type;location;lat;lon;timestamp;pressure;altitude;pressure_sealevel;temperature;humidity
19526;BME280;9907;42.676;26.348;2023-04-30T00:01:38;98675.22;;;9.71;67.55
19526;BME280;9907;42.676;26.348;2023-04-30T00:04:04;98666.50;;;9.79;66.81
19526;BME280;9907;42.676;26.348;2023-04-30T00:06:30;98666.19;;;9.72;67.36
19526;BME280;9907;42.676;26.348;2023-04-30T00:08:56;98670.13;;;9.88;66.89
19526;BME280;9907;42.676;26.348;2023-04-30T00:11:21;98657.22;;;9.93;65.86
19526;BME280;9907;42.676;26.348;2023-04-30T00:13:47;98656.91;;;10.05;64.95
19526;BME280;9907;42.676;26.348;2023-04-30T00:16:12;98653.81;;;10.10;64.33
19526;BME280;9907;42.676;26.348;2023-04-30T00:18:38;98657.06;;;9.94;64.39
19526;BME280;9907;42.676;26.348;2023-04-30T00:21:03;98650.03;;;10.03;65.03
19526;BME280;9907;42.676;26.348;2023-04-30T00:23:29;98645.53;;;10.03;64.59
19526;BME280;9907;42.676;26.348;2023-04-30T00:25:54;98650.31;;;10.00;64.79
19526;BME280;9907;42.676;26.348;2023-04-30T00:28:20;98650.06;;;9.84;64.70
19526;BME280;9907;42.676;26.348;2023-04-30T00:30:45;98644.44;;;9.77;65.62
19526;BME280;9907;42.676;26.348;2023-04-30T00:33:11;98640.38;;;9.83;64.86
19526;BME280;9907;42.676;26.348;2023-04-30T00:35:37;98644.16;;;9.90;65.18
19526;BME280;9907;42.676;26.348;2023-04-30T00:38:02;98648.94;;;9.76;65.83
19526;BME280;9907;42.676;26.348;2023-04-30T00:40:28;98639.25;;;9.75;65.79
19526;BME280;9907;42.676;26.348;2023-04-30T00:42:53;98640.66;;;9.89;65.90
19526;BME280;9907;42.676;26.348;2023-04-30T00:45:21;98633.75;;;9.87;65.15
19526;BME280;9907;42.676;26.348;2023-04-30T00:47:46;98634.47;;;9.89;64.72
19526;BME280;9907;42.676;26.348;2023-04-30T00:50:14;98635.13;;;10.10;63.56
19526;BME280;9907;42.676;26.348;2023-04-30T00:52:41;98632.88;;;10.05;63.60
19526;BME280;9907;42.676;26.348;2023-04-30T00:55:07;98628.72;;;9.84;63.91
19526;BME280;9907;42.676;26.348;2023-04-30T00:57:34;98632.09;;;9.76;65.80
19526;BME280;9907;42.676;26.348;2023-04-30T01:00:00;98628.31;;;9.69;65.39
19526;BME280;9907;42.676;26.348;2023-04-30T01:02:26;98633.25;;;9.64;66.09
19526;BME280;9907;42.676;26.348;2023-04-30T01:04:52;98619.19;;;9.81;65.22
19526;BME280;9907;42.676;26.348;2023-04-30T01:07:18;98614.53;;;9.83;65.15
19526;BME280;9907;42.676;26.348;2023-04-30T01:09:44;98613.16;;;9.60;66.50
19526;BME280;9907;42.676;26.348;2023-04-30T01:15:27;98616.28;;;9.46;67.39
19526;BME280;9907;42.676;26.348;2023-04-30T01:18:01;98618.66;;;9.49;66.79
19526;BME280;9907;42.676;26.348;2023-04-30T01:20:28;98612.75;;;9.45;66.91
19526;BME280;9907;42.676;26.348;2023-04-30T01:28:08;98610.63;;;9.58;66.71
19526;BME280;9907;42.676;26.348;2023-04-30T01:30:34;98602.78;;;9.47;67.03
19526;BME280;9907;42.676;26.348;2023-04-30T01:33:01;98604.19;;;9.42;67.25
19526;BME280;9907;42.676;26.348;2023-04-30T01:43:43;98607.38;;;9.16;69.52
19526;BME280;9907;42.676;26.348;2023-04-30T01:46:25;98608.81;;;9.20;69.00
19526;BME280;9907;42.676;26.348;2023-04-30T01:49:14;98607.38;;;9.16;70.42
19526;BME280;9907;42.676;26.348;2023-04-30T01:51:43;98616.09;;;9.18;68.75
19526;BME280;9907;42.676;26.348;2023-04-30T01:54:31;98611.75;;;9.46;67.11
19526;BME280;9907;42.676;26.348;2023-04-30T01:57:05;98614.56;;;9.45;67.44
19526;BME280;9907;42.676;26.348;2023-04-30T01:59:33;98611.06;;;9.44;66.46
19526;BME280;9907;42.676;26.348;2023-04-30T02:01:59;98611.06;;;9.35;68.48
19526;BME280;9907;42.676;26.348;2023-04-30T02:04:24;98608.81;;;9.30;69.21
19526;BME280;9907;42.676;26.348;2023-04-30T02:06:50;98607.84;;;9.31;68.15
19526;BME280;9907;42.676;26.348;2023-04-30T02:09:15;98606.44;;;9.37;67.56
19526;BME280;9907;42.676;26.348;2023-04-30T02:11:41;98612.19;;;9.42;67.25
19526;BME280;9907;42.676;26.348;2023-04-30T02:14:06;98601.38;;;9.43;68.01
19526;BME280;9907;42.676;26.348;2023-04-30T02:16:32;98596.88;;;9.24;68.65
19526;BME280;9907;42.676;26.348;2023-04-30T02:18:57;98591.72;;;9.23;68.26
19526;BME280;9907;42.676;26.348;2023-04-30T02:21:22;98603.78;;;9.37;68.26
19526;BME280;9907;42.676;26.348;2023-04-30T02:23:48;98592.53;;;9.43;68.15
19526;BME280;9907;42.676;26.348;2023-04-30T02:26:13;98598.72;;;9.43;68.37
19526;BME280;9907;42.676;26.348;2023-04-30T02:28:39;98593.41;;;9.53;67.68
19526;BME280;9907;42.676;26.348;2023-04-30T02:31:05;98600.41;;;9.44;67.75
19526;BME280;9907;42.676;26.348;2023-04-30T02:33:30;98600.53;;;9.43;67.14
19526;BME280;9907;42.676;26.348;2023-04-30T02:35:58;98606.41;;;9.46;66.98
19526;BME280;9907;42.676;26.348;2023-04-30T02:38:24;98603.50;;;9.49;67.29
19526;BME280;9907;42.676;26.348;2023-04-30T02:40:49;98607.56;;;9.34;67.44
19526;BME280;9907;42.676;26.348;2023-04-30T02:43:15;98598.03;;;9.41;68.12
19526;BME280;9907;42.676;26.348;2023-04-30T02:45:40;98598.72;;;9.43;67.97
19526;BME280;9907;42.676;26.348;2023-04-30T02:48:06;98603.19;;;9.43;67.85
19526;BME280;9907;42.676;26.348;2023-04-30T02:50:31;98600.66;;;9.51;68.10
19526;BME280;9907;42.676;26.348;2023-04-30T02:52:56;98599.97;;;9.58;67.85
19526;BME280;9907;42.676;26.348;2023-04-30T02:55:22;98601.81;;;9.48;67.83
19526;BME280;9907;42.676;26.348;2023-04-30T02:57:48;98611.34;;;9.32;68.88
19526;BME280;9907;42.676;26.348;2023-04-30T03:00:13;98606.00;;;9.22;69.73
19526;BME280;9907;42.676;26.348;2023-04-30T03:02:39;98607.97;;;9.20;69.63
19526;BME280;9907;42.676;26.348;2023-04-30T03:05:04;98605.56;;;9.17;70.45
19526;BME280;9907;42.676;26.348;2023-04-30T03:07:30;98608.25;;;9.07;71.60
19526;BME280;9907;42.676;26.348;2023-04-30T03:09:56;98607.09;;;9.00;71.90
19526;BME280;9907;42.676;26.348;2023-04-30T03:12:21;98610.47;;;9.02;71.63
19526;BME280;9907;42.676;26.348;2023-04-30T03:14:46;98607.69;;;9.13;70.39
19526;BME280;9907;42.676;26.348;2023-04-30T03:17:12;98610.50;;;9.12;70.00
19526;BME280;9907;42.676;26.348;2023-04-30T03:19:37;98614.41;;;9.08;70.49
19526;BME280;9907;42.676;26.348;2023-04-30T03:22:03;98607.25;;;9.08;70.68
19526;BME280;9907;42.676;26.348;2023-04-30T03:24:28;98610.22;;;9.15;71.11
19526;BME280;9907;42.676;26.348;2023-04-30T03:26:54;98618.06;;;9.26;70.17
19526;BME280;9907;42.676;26.348;2023-04-30T03:29:19;98622.00;;;9.22;70.20
19526;BME280;9907;42.676;26.348;2023-04-30T03:31:45;98615.69;;;9.33;70.24
19526;BME280;9907;42.676;26.348;2023-04-30T03:34:10;98630.00;;;9.32;70.76
19526;BME280;9907;42.676;26.348;2023-04-30T03:36:36;98623.66;;;9.13;71.28
19526;BME280;9907;42.676;26.348;2023-04-30T03:39:02;98632.38;;;9.15;71.26
19526;BME280;9907;42.676;26.348;2023-04-30T03:41:28;98631.84;;;9.31;69.88
19526;BME280;9907;42.676;26.348;2023-04-30T03:43:54;98632.25;;;9.36;69.14
19526;BME280;9907;42.676;26.348;2023-04-30T03:46:19;98636.44;;;9.29;69.83
19526;BME280;9907;42.676;26.348;2023-04-30T03:48:45;98630.56;;;9.35;69.92
19526;BME280;9907;42.676;26.348;2023-04-30T03:51:10;98630.84;;;9.32;70.53
19526;BME280;9907;42.676;26.348;2023-04-30T03:53:36;98631.41;;;9.36;71.32
19526;BME280;9907;42.676;26.348;2023-04-30T03:56:02;98632.13;;;9.38;71.28
19526;BME280;9907;42.676;26.348;2023-04-30T03:58:28;98627.91;;;9.45;70.68
19526;BME280;9907;42.676;26.348;2023-04-30T04:00:54;98629.88;;;9.52;70.56
19526;BME280;9907;42.676;26.348;2023-04-30T04:03:20;98632.81;;;9.59;70.68
19526;BME280;9907;42.676;26.348;2023-04-30T04:05:46;98633.22;;;9.54;72.63
19526;BME280;9907;42.676;26.348;2023-04-30T04:08:12;98626.63;;;9.58;69.31
19526;BME280;9907;42.676;26.348;2023-04-30T04:10:38;98634.50;;;9.79;68.37
19526;BME280;9907;42.676;26.348;2023-04-30T04:13:04;98632.91;;;9.96;66.90
19526;BME280;9907;42.676;26.348;2023-04-30T04:15:31;98640.19;;;10.03;66.46
19526;BME280;9907;42.676;26.348;2023-04-30T04:17:56;98641.59;;;9.98;67.19
19526;BME280;9907;42.676;26.348;2023-04-30T04:20:22;98632.88;;;10.05;65.93
19526;BME280;9907;42.676;26.348;2023-04-30T04:22:47;98638.78;;;10.09;67.61
19526;BME280;9907;42.676;26.348;2023-04-30T04:25:13;98637.56;;;9.94;71.04
19526;BME280;9907;42.676;26.348;2023-04-30T04:27:39;98635.44;;;9.88;70.78
19526;BME280;9907;42.676;26.348;2023-04-30T04:30:05;98645.00;;;9.90;70.41
19526;BME280;9907;42.676;26.348;2023-04-30T04:32:31;98638.38;;;9.94;69.96
19526;BME280;9907;42.676;26.348;2023-04-30T04:34:57;98647.78;;;9.98;69.12
19526;BME280;9907;42.676;26.348;2023-04-30T04:37:23;98648.06;;;9.95;68.96
19526;BME280;9907;42.676;26.348;2023-04-30T04:39:48;98644.56;;;9.95;69.67
19526;BME280;9907;42.676;26.348;2023-04-30T04:42:15;98656.25;;;9.94;70.64
19526;BME280;9907;42.676;26.348;2023-04-30T04:44:44;98648.63;;;9.99;69.64
19526;BME280;9907;42.676;26.348;2023-04-30T04:47:09;98653.56;;;9.94;70.75
19526;BME280;9907;42.676;26.348;2023-04-30T04:49:36;98644.13;;;9.99;69.63
19526;BME280;9907;42.676;26.348;2023-04-30T04:52:02;98646.09;;;10.07;69.30
19526;BME280;9907;42.676;26.348;2023-04-30T04:54:27;98641.03;;;10.04;71.37
19526;BME280;9907;42.676;26.348;2023-04-30T04:56:53;98648.75;;;10.07;71.77
19526;BME280;9907;42.676;26.348;2023-04-30T04:59:18;98644.28;;;10.07;72.33
19526;BME280;9907;42.676;26.348;2023-04-30T05:01:44;98642.44;;;10.17;68.70
19526;BME280;9907;42.676;26.348;2023-04-30T05:04:09;98646.34;;;10.33;67.71
19526;BME280;9907;42.676;26.348;2023-04-30T05:06:35;98649.09;;;10.50;68.58
19526;BME280;9907;42.676;26.348;2023-04-30T05:09:01;98651.28;;;10.64;68.78
19526;BME280;9907;42.676;26.348;2023-04-30T05:11:27;98656.28;;;10.77;68.52
19526;BME280;9907;42.676;26.348;2023-04-30T05:13:52;98649.78;;;10.80;65.75
19526;BME280;9907;42.676;26.348;2023-04-30T05:16:18;98653.84;;;10.84;64.83
19526;BME280;9907;42.676;26.348;2023-04-30T05:18:43;98652.81;;;10.94;65.02
19526;BME280;9907;42.676;26.348;2023-04-30T05:21:09;98651.09;;;11.03;63.88
19526;BME280;9907;42.676;26.348;2023-04-30T05:23:34;98646.53;;;11.13;64.03
19526;BME280;9907;42.676;26.348;2023-04-30T05:26:00;98653.78;;;11.20;62.83
19526;BME280;9907;42.676;26.348;2023-04-30T05:28:26;98650.22;;;11.30;62.99
19526;BME280;9907;42.676;26.348;2023-04-30T05:30:51;98643.81;;;11.40;63.55
19526;BME280;9907;42.676;26.348;2023-04-30T05:33:17;98658.13;;;11.49;62.26
19526;BME280;9907;42.676;26.348;2023-04-30T05:35:43;98650.84;;;11.59;62.64
19526;BME280;9907;42.676;26.348;2023-04-30T05:38:08;98649.66;;;11.71;63.69
19526;BME280;9907;42.676;26.348;2023-04-30T05:40:34;98652.91;;;11.83;63.02
19526;BME280;9907;42.676;26.348;2023-04-30T05:42:59;98661.09;;;11.99;63.13
19526;BME280;9907;42.676;26.348;2023-04-30T05:45:24;98651.44;;;12.06;62.79
19526;BME280;9907;42.676;26.348;2023-04-30T05:47:50;98648.69;;;12.15;62.38
19526;BME280;9907;42.676;26.348;2023-04-30T05:50:16;98660.25;;;12.24;61.79
19526;BME280;9907;42.676;26.348;2023-04-30T05:52:41;98660.69;;;12.37;62.54
19526;BME280;9907;42.676;26.348;2023-04-30T05:55:07;98656.91;;;12.48;61.87
19526;BME280;9907;42.676;26.348;2023-04-30T05:57:33;98658.16;;;12.61;63.63
19526;BME280;9907;42.676;26.348;2023-04-30T05:59:59;98665.25;;;12.71;61.58
19526;BME280;9907;42.676;26.348;2023-04-30T06:02:25;98664.75;;;12.75;60.17
19526;BME280;9907;42.676;26.348;2023-04-30T06:04:50;98660.28;;;12.84;61.22
19526;BME280;9907;42.676;26.348;2023-04-30T06:07:16;98666.72;;;12.99;61.94
19526;BME280;9907;42.676;26.348;2023-04-30T06:09:41;98663.63;;;13.20;61.35
19526;BME280;9907;42.676;26.348;2023-04-30T06:12:07;98669.53;;;13.31;60.71
19526;BME280;9907;42.676;26.348;2023-04-30T06:14:34;98667.72;;;13.40;59.25
19526;BME280;9907;42.676;26.348;2023-04-30T06:16:59;98671.06;;;13.42;58.97
19526;BME280;9907;42.676;26.348;2023-04-30T06:19:25;98671.75;;;13.44;58.06
19526;BME280;9907;42.676;26.348;2023-04-30T06:21:50;98671.59;;;13.53;58.08
19526;BME280;9907;42.676;26.348;2023-04-30T06:24:16;98671.97;;;13.67;56.88
19526;BME280;9907;42.676;26.348;2023-04-30T06:26:41;98672.81;;;13.83;58.93
19526;BME280;9907;42.676;26.348;2023-04-30T06:29:07;98674.31;;;13.94;56.75
19526;BME280;9907;42.676;26.348;2023-04-30T06:31:33;98674.00;;;14.05;56.74
19526;BME280;9907;42.676;26.348;2023-04-30T06:33:58;98663.94;;;14.15;54.90
19526;BME280;9907;42.676;26.348;2023-04-30T06:36:24;98665.59;;;14.24;54.89
19526;BME280;9907;42.676;26.348;2023-04-30T06:38:49;98656.72;;;14.40;56.74
19526;BME280;9907;42.676;26.348;2023-04-30T06:41:15;98653.44;;;14.77;54.86
19526;BME280;9907;42.676;26.348;2023-04-30T06:43:43;98652.00;;;14.97;56.08
19526;BME280;9907;42.676;26.348;2023-04-30T06:46:09;98654.75;;;14.89;54.45
19526;BME280;9907;42.676;26.348;2023-04-30T06:48:34;98654.41;;;14.84;57.59
19526;BME280;9907;42.676;26.348;2023-04-30T06:51:00;98659.63;;;14.85;54.82
19526;BME280;9907;42.676;26.348;2023-04-30T06:53:25;98643.81;;;15.21;55.28
19526;BME280;9907;42.676;26.348;2023-04-30T06:55:51;98653.59;;;15.45;54.63
19526;BME280;9907;42.676;26.348;2023-04-30T06:58:17;98655.75;;;15.80;52.95
19526;BME280;9907;42.676;26.348;2023-04-30T07:00:44;98651.44;;;15.94;52.33
19526;BME280;9907;42.676;26.348;2023-04-30T07:03:09;98649.31;;;16.41;52.97
19526;BME280;9907;42.676;26.348;2023-04-30T07:05:35;98652.19;;;16.63;52.80
19526;BME280;9907;42.676;26.348;2023-04-30T07:08:01;98648.66;;;16.77;52.10
19526;BME280;9907;42.676;26.348;2023-04-30T07:10:28;98650.31;;;16.63;52.84
19526;BME280;9907;42.676;26.348;2023-04-30T07:12:53;98644.66;;;16.58;51.46
19526;BME280;9907;42.676;26.348;2023-04-30T07:15:19;98653.63;;;16.50;51.08
19526;BME280;9907;42.676;26.348;2023-04-30T07:17:45;98648.69;;;16.54;51.16
19526;BME280;9907;42.676;26.348;2023-04-30T07:20:11;98648.38;;;16.72;51.08
19526;BME280;9907;42.676;26.348;2023-04-30T07:22:39;98642.97;;;16.86;52.04
19526;BME280;9907;42.676;26.348;2023-04-30T07:25:05;98649.97;;;16.95;51.67
19526;BME280;9907;42.676;26.348;2023-04-30T07:27:30;98650.97;;;17.09;51.48
19526;BME280;9907;42.676;26.348;2023-04-30T07:29:56;98642.47;;;17.12;51.76
19526;BME280;9907;42.676;26.348;2023-04-30T07:32:21;98650.19;;;17.15;51.24
19526;BME280;9907;42.676;26.348;2023-04-30T07:34:47;98649.22;;;17.37;50.50
19526;BME280;9907;42.676;26.348;2023-04-30T07:37:13;98646.91;;;17.70;51.91
19526;BME280;9907;42.676;26.348;2023-04-30T07:39:38;98652.47;;;17.83;50.62
19526;BME280;9907;42.676;26.348;2023-04-30T07:42:04;98645.59;;;18.02;51.42
19526;BME280;9907;42.676;26.348;2023-04-30T07:44:30;98650.59;;;18.05;50.33
19526;BME280;9907;42.676;26.348;2023-04-30T07:46:55;98646.53;;;18.16;50.57
19526;BME280;9907;42.676;26.348;2023-04-30T07:49:21;98652.38;;;18.19;49.83
19526;BME280;9907;42.676;26.348;2023-04-30T07:51:47;98651.13;;;18.43;50.23
19526;BME280;9907;42.676;26.348;2023-04-30T07:54:12;98649.00;;;18.66;48.23
19526;BME280;9907;42.676;26.348;2023-04-30T07:56:38;98641.84;;;18.80;47.44
19526;BME280;9907;42.676;26.348;2023-04-30T07:59:04;98641.50;;;18.96;47.50
19526;BME280;9907;42.676;26.348;2023-04-30T08:01:30;98646.34;;;19.07;47.06
19526;BME280;9907;42.676;26.348;2023-04-30T08:03:55;98642.88;;;19.20;46.26
19526;BME280;9907;42.676;26.348;2023-04-30T08:06:21;98645.06;;;19.03;45.71
19526;BME280;9907;42.676;26.348;2023-04-30T08:08:47;98646.56;;;19.06;44.70
19526;BME280;9907;42.676;26.348;2023-04-30T08:11:12;98649.28;;;19.12;44.60
19526;BME280;9907;42.676;26.348;2023-04-30T08:13:38;98640.63;;;19.30;43.68
19526;BME280;9907;42.676;26.348;2023-04-30T08:16:03;98646.16;;;19.50;43.74
19526;BME280;9907;42.676;26.348;2023-04-30T08:18:29;98644.00;;;19.38;42.78
19526;BME280;9907;42.676;26.348;2023-04-30T08:20:56;98647.03;;;19.70;42.74
19526;BME280;9907;42.676;26.348;2023-04-30T08:23:21;98645.00;;;19.98;44.05
19526;BME280;9907;42.676;26.348;2023-04-30T08:25:47;98630.44;;;19.99;42.30
19526;BME280;9907;42.676;26.348;2023-04-30T08:28:12;98637.91;;;20.10;44.11
19526;BME280;9907;42.676;26.348;2023-04-30T08:30:58;98638.75;;;19.91;42.67
19526;BME280;9907;42.676;26.348;2023-04-30T08:33:23;98637.91;;;20.10;41.85
19526;BME280;9907;42.676;26.348;2023-04-30T08:35:49;98635.03;;;20.45;44.04
19526;BME280;9907;42.676;26.348;2023-04-30T08:38:15;98633.56;;;20.49;41.20
19526;BME280;9907;42.676;26.348;2023-04-30T08:40:48;98631.72;;;20.43;41.29
19526;BME280;9907;42.676;26.348;2023-04-30T08:43:17;98628.75;;;20.64;40.89
19526;BME280;9907;42.676;26.348;2023-04-30T08:45:43;98628.94;;;20.62;42.72
19526;BME280;9907;42.676;26.348;2023-04-30T08:48:10;98632.06;;;20.66;42.47
19526;BME280;9907;42.676;26.348;2023-04-30T08:50:40;98625.97;;;20.90;42.85
19526;BME280;9907;42.676;26.348;2023-04-30T08:53:07;98623.28;;;20.83;43.83
19526;BME280;9907;42.676;26.348;2023-04-30T08:55:35;98618.50;;;20.79;42.77
19526;BME280;9907;42.676;26.348;2023-04-30T08:58:03;98621.22;;;20.66;43.29
19526;BME280;9907;42.676;26.348;2023-04-30T09:00:31;98623.28;;;20.77;40.76
19526;BME280;9907;42.676;26.348;2023-04-30T09:02:57;98621.13;;;21.05;43.10
19526;BME280;9907;42.676;26.348;2023-04-30T09:05:22;98621.13;;;21.05;41.08
19526;BME280;9907;42.676;26.348;2023-04-30T09:07:48;98618.81;;;21.15;40.92
19526;BME280;9907;42.676;26.348;2023-04-30T09:10:17;98613.16;;;21.10;40.12
19526;BME280;9907;42.676;26.348;2023-04-30T09:12:43;98607.88;;;21.35;39.50
19526;BME280;9907;42.676;26.348;2023-04-30T09:15:11;98611.16;;;21.44;39.60
19526;BME280;9907;42.676;26.348;2023-04-30T09:17:37;98601.88;;;21.64;39.69
19526;BME280;9907;42.676;26.348;2023-04-30T09:20:10;98604.72;;;21.76;41.63
19526;BME280;9907;42.676;26.348;2023-04-30T09:22:37;98606.56;;;21.82;39.27
19526;BME280;9907;42.676;26.348;2023-04-30T09:25:04;98599.28;;;22.07;41.12
19526;BME280;9907;42.676;26.348;2023-04-30T09:27:32;98606.34;;;22.15;39.64
19526;BME280;9907;42.676;26.348;2023-04-30T09:29:57;98597.47;;;21.63;40.33
19526;BME280;9907;42.676;26.348;2023-04-30T09:32:24;98597.41;;;21.39;39.83
19526;BME280;9907;42.676;26.348;2023-04-30T09:34:49;98596.25;;;21.08;40.29
19526;BME280;9907;42.676;26.348;2023-04-30T09:37:15;98590.16;;;20.49;40.78
19526;BME280;9907;42.676;26.348;2023-04-30T09:39:54;98588.47;;;20.67;43.10
19526;BME280;9907;42.676;26.348;2023-04-30T09:42:19;98584.50;;;20.63;41.59
19526;BME280;9907;42.676;26.348;2023-04-30T09:44:45;98582.41;;;20.59;44.00
19526;BME280;9907;42.676;26.348;2023-04-30T09:47:16;98574.44;;;20.70;41.33
19526;BME280;9907;42.676;26.348;2023-04-30T09:49:43;98582.41;;;20.65;42.26
19526;BME280;9907;42.676;26.348;2023-04-30T09:52:11;98575.75;;;20.61;41.39
19526;BME280;9907;42.676;26.348;2023-04-30T09:54:40;98577.56;;;20.74;42.39
19526;BME280;9907;42.676;26.348;2023-04-30T09:57:08;98572.81;;;20.63;41.96
19526;BME280;9907;42.676;26.348;2023-04-30T09:59:35;98574.09;;;20.54;42.00
19526;BME280;9907;42.676;26.348;2023-04-30T10:02:03;98577.44;;;20.23;41.23
19526;BME280;9907;42.676;26.348;2023-04-30T10:04:34;98581.41;;;20.40;42.88
19526;BME280;9907;42.676;26.348;2023-04-30T10:07:08;98574.94;;;20.54;43.26
19526;BME280;9907;42.676;26.348;2023-04-30T10:09:39;98565.28;;;20.71;42.52
19526;BME280;9907;42.676;26.348;2023-04-30T10:12:15;98570.31;;;20.55;43.04
19526;BME280;9907;42.676;26.348;2023-04-30T10:14:51;98566.13;;;20.65;43.91
19526;BME280;9907;42.676;26.348;2023-04-30T10:17:17;98560.31;;;20.49;45.32
19526;BME280;9907;42.676;26.348;2023-04-30T10:19:48;98562.81;;;20.57;44.46
19526;BME280;9907;42.676;26.348;2023-04-30T10:22:17;98565.72;;;20.62;45.38
19526;BME280;9907;42.676;26.348;2023-04-30T10:24:42;98554.91;;;20.49;42.23
19526;BME280;9907;42.676;26.348;2023-04-30T10:27:09;98551.53;;;20.60;42.76
19526;BME280;9907;42.676;26.348;2023-04-30T10:29:34;98560.22;;;20.81;43.10
19526;BME280;9907;42.676;26.348;2023-04-30T10:32:00;98548.38;;;20.69;42.35
19526;BME280;9907;42.676;26.348;2023-04-30T10:37:42;98551.41;;;20.28;43.57
19526;BME280;9907;42.676;26.348;2023-04-30T10:40:10;98557.84;;;20.21;43.19
19526;BME280;9907;42.676;26.348;2023-04-30T10:42:36;98555.75;;;20.29;43.20
19526;BME280;9907;42.676;26.348;2023-04-30T10:45:03;98561.19;;;20.36;43.00
19526;BME280;9907;42.676;26.348;2023-04-30T10:47:28;98549.03;;;20.52;43.09
19526;BME280;9907;42.676;26.348;2023-04-30T10:50:02;98551.16;;;20.36;44.90
19526;BME280;9907;42.676;26.348;2023-04-30T10:52:29;98557.84;;;20.34;44.10
19526;BME280;9907;42.676;26.348;2023-04-30T10:54:54;98555.31;;;20.32;44.34
19526;BME280;9907;42.676;26.348;2023-04-30T10:57:20;98549.50;;;20.29;44.39
19526;BME280;9907;42.676;26.348;2023-04-30T11:02:16;98557.22;;;20.38;43.60
19526;BME280;9907;42.676;26.348;2023-04-30T11:05:07;98550.75;;;20.33;43.68
19526;BME280;9907;42.676;26.348;2023-04-30T11:07:33;98548.63;;;20.48;44.43
19526;BME280;9907;42.676;26.348;2023-04-30T11:10:00;98544.66;;;20.57;44.59
19526;BME280;9907;42.676;26.348;2023-04-30T11:12:26;98537.31;;;20.64;43.79
19526;BME280;9907;42.676;26.348;2023-04-30T11:14:59;98545.66;;;20.63;45.76
19526;BME280;9907;42.676;26.348;2023-04-30T11:17:26;98548.03;;;20.46;43.83
19526;BME280;9907;42.676;26.348;2023-04-30T11:19:53;98542.59;;;20.26;44.20
19526;BME280;9907;42.676;26.348;2023-04-30T11:22:21;98549.72;;;20.34;44.07
19526;BME280;9907;42.676;26.348;2023-04-30T11:27:26;98551.59;;;20.33;43.95
19526;BME280;9907;42.676;26.348;2023-04-30T11:29:53;98552.84;;;20.31;44.02
19526;BME280;9907;42.676;26.348;2023-04-30T11:32:20;98549.06;;;20.19;44.49
19526;BME280;9907;42.676;26.348;2023-04-30T11:34:46;98552.41;;;20.27;45.80
19526;BME280;9907;42.676;26.348;2023-04-30T11:37:18;98543.00;;;20.36;44.75
19526;BME280;9907;42.676;26.348;2023-04-30T11:39:44;98541.56;;;20.40;45.60
19526;BME280;9907;42.676;26.348;2023-04-30T11:42:15;98544.47;;;20.46;45.31
19526;BME280;9907;42.676;26.348;2023-04-30T11:44:42;98535.69;;;20.57;44.72
19526;BME280;9907;42.676;26.348;2023-04-30T11:47:07;98540.25;;;20.69;46.35
19526;BME280;9907;42.676;26.348;2023-04-30T11:49:33;98534.00;;;20.56;46.30
19526;BME280;9907;42.676;26.348;2023-04-30T11:51:58;98539.06;;;20.19;45.54
19526;BME280;9907;42.676;26.348;2023-04-30T11:54:24;98537.19;;;20.20;46.35
19526;BME280;9907;42.676;26.348;2023-04-30T11:56:49;98544.50;;;20.39;45.27
19526;BME280;9907;42.676;26.348;2023-04-30T11:59:15;98534.06;;;20.43;43.71
19526;BME280;9907;42.676;26.348;2023-04-30T12:01:42;98534.63;;;20.51;44.37
19526;BME280;9907;42.676;26.348;2023-04-30T12:04:08;98533.00;;;20.37;45.31
19526;BME280;9907;42.676;26.348;2023-04-30T12:06:34;98523.44;;;20.34;44.53
19526;BME280;9907;42.676;26.348;2023-04-30T12:09:01;98531.56;;;20.28;44.10
19526;BME280;9907;42.676;26.348;2023-04-30T12:11:33;98522.78;;;20.39;46.25
19526;BME280;9907;42.676;26.348;2023-04-30T12:14:17;98524.88;;;20.24;45.74
19526;BME280;9907;42.676;26.348;2023-04-30T12:16:47;98513.41;;;20.15;44.99
19526;BME280;9907;42.676;26.348;2023-04-30T12:19:17;98516.94;;;20.22;44.74
19526;BME280;9907;42.676;26.348;2023-04-30T12:21:44;98515.72;;;20.25;44.23
19526;BME280;9907;42.676;26.348;2023-04-30T12:24:17;98509.66;;;20.29;45.49
19526;BME280;9907;42.676;26.348;2023-04-30T12:26:43;98531.56;;;20.08;47.42
19526;BME280;9907;42.676;26.348;2023-04-30T12:29:10;98523.47;;;19.95;47.60
19526;BME280;9907;42.676;26.348;2023-04-30T12:31:37;98521.56;;;19.96;48.38
19526;BME280;9907;42.676;26.348;2023-04-30T12:34:08;98522.59;;;19.81;48.45
19526;BME280;9907;42.676;26.348;2023-04-30T12:36:34;98520.31;;;19.85;48.84
19526;BME280;9907;42.676;26.348;2023-04-30T12:39:14;98520.94;;;19.87;48.96
19526;BME280;9907;42.676;26.348;2023-04-30T12:41:44;98533.66;;;19.86;49.24
19526;BME280;9907;42.676;26.348;2023-04-30T12:44:20;98528.84;;;19.88;49.76
19526;BME280;9907;42.676;26.348;2023-04-30T12:46:47;98527.63;;;19.91;49.91
19526;BME280;9907;42.676;26.348;2023-04-30T12:49:26;98523.66;;;19.80;51.69
19526;BME280;9907;42.676;26.348;2023-04-30T12:51:58;98517.63;;;19.65;51.59
19526;BME280;9907;42.676;26.348;2023-04-30T12:54:26;98516.97;;;19.70;51.70
19526;BME280;9907;42.676;26.348;2023-04-30T12:57:05;98519.47;;;19.65;54.06
19526;BME280;9907;42.676;26.348;2023-04-30T12:59:36;98519.69;;;19.43;56.95
19526;BME280;9907;42.676;26.348;2023-04-30T13:02:08;98515.28;;;19.56;57.27
19526;BME280;9907;42.676;26.348;2023-04-30T13:04:35;98519.88;;;19.49;58.02
19526;BME280;9907;42.676;26.348;2023-04-30T13:07:01;98519.03;;;19.48;58.30
19526;BME280;9907;42.676;26.348;2023-04-30T13:09:27;98509.00;;;19.35;57.10
19526;BME280;9907;42.676;26.348;2023-04-30T13:11:53;98504.63;;;19.28;55.71
19526;BME280;9907;42.676;26.348;2023-04-30T13:14:18;98507.31;;;19.21;56.20
19526;BME280;9907;42.676;26.348;2023-04-30T13:16:44;98504.78;;;19.13;57.49
19526;BME280;9907;42.676;26.348;2023-04-30T13:19:09;98505.63;;;19.14;55.65
19526;BME280;9907;42.676;26.348;2023-04-30T13:21:36;98500.84;;;19.22;55.29
19526;BME280;9907;42.676;26.348;2023-04-30T13:24:01;98501.69;;;19.23;54.65
19526;BME280;9907;42.676;26.348;2023-04-30T13:26:27;98492.72;;;19.22;53.90